Time;durP1;ratioP1;P1;durP2;ratioP2;P2;SDS_P1;SDS_P2;PMS_P1;PMS_P2;Temp;Humidity;BMP_temperature;BMP_pressure;BME280_temperature;BME280_humidity;BME280_pressure;Samples;Min_cycle;Max_cycle;Signal;HPM_P1;HPM_P2
2022/11/28 00:01:41;;;;;;;27.95;25.75;;;5.10;99.90;;;;;;4986494;28;20046;-75
2022/11/28 00:04:09;;;;;;;28.55;26.33;;;5.10;99.90;;;;;;4988982;28;20276;-74
2022/11/28 00:06:44;;;;;;;28.73;26.23;;;5.10;99.90;;;;;;4965200;28;20237;-75
2022/11/28 00:09:13;;;;;;;31.85;27.70;;;5.00;99.90;;;;;;4985535;28;20057;-74
2022/11/28 00:11:41;;;;;;;28.58;26.38;;;4.90;99.90;;;;;;4984527;28;20180;-75
2022/11/28 00:14:08;;;;;;;28.52;26.20;;;4.90;99.90;;;;;;4987301;28;20256;-75
2022/11/28 00:16:36;;;;;;;29.10;26.67;;;4.90;99.90;;;;;;4989571;28;21525;-76
2022/11/28 00:19:04;;;;;;;28.77;26.42;;;4.90;99.90;;;;;;4987613;28;20037;-76
2022/11/28 00:21:31;;;;;;;29.48;27.15;;;4.90;99.90;;;;;;4978384;28;20602;-74
2022/11/28 00:23:59;;;;;;;28.98;26.70;;;4.90;99.90;;;;;;4986668;28;20252;-74
2022/11/28 00:26:30;;;;;;;29.20;26.58;;;4.90;99.90;;;;;;4984678;28;20168;-74
2022/11/28 00:28:58;;;;;;;29.27;26.83;;;4.90;99.90;;;;;;4964297;28;20053;-75
2022/11/28 00:31:27;;;;;;;28.80;26.52;;;4.90;99.90;;;;;;4977716;28;20733;-75
2022/11/28 00:33:55;;;;;;;28.67;26.50;;;4.90;99.90;;;;;;4979818;28;20126;-74
2022/11/28 00:36:22;;;;;;;27.95;25.85;;;4.90;99.90;;;;;;4980463;28;20709;-74
2022/11/28 00:38:50;;;;;;;28.10;25.90;;;4.90;99.90;;;;;;4984130;28;20129;-74
2022/11/28 00:41:19;;;;;;;29.45;26.90;;;4.90;99.90;;;;;;4984247;28;20053;-74
2022/11/28 00:43:47;;;;;;;26.92;24.92;;;4.90;99.90;;;;;;4980525;28;20101;-72
2022/11/28 00:46:16;;;;;;;29.45;26.95;;;4.90;99.90;;;;;;4970695;28;20046;-73
2022/11/28 00:48:43;;;;;;;39.55;26.85;;;4.80;99.90;;;;;;4987946;28;20744;-74
2022/11/28 00:51:16;;;;;;;27.80;25.48;;;4.70;99.90;;;;;;4965333;28;20050;-74
2022/11/28 00:53:46;;;;;;;26.98;24.85;;;4.70;99.90;;;;;;4987991;28;20133;-74
2022/11/28 00:56:15;;;;;;;27.70;25.40;;;4.70;99.90;;;;;;4997750;28;20209;-74
2022/11/28 00:58:42;;;;;;;26.30;24.13;;;4.70;99.90;;;;;;4981139;28;20111;-74
2022/11/28 01:01:19;;;;;;;27.77;25.38;;;4.70;99.90;;;;;;4968343;28;20057;-73
2022/11/28 01:03:47;;;;;;;27.85;25.48;;;4.80;99.90;;;;;;4968083;28;20077;-73
2022/11/28 01:06:22;;;;;;;27.98;25.50;;;4.80;99.90;;;;;;4987183;28;20656;-74
2022/11/28 01:08:49;;;;;;;26.58;24.48;;;4.80;99.90;;;;;;4982795;28;20049;-77
2022/11/28 01:11:15;;;;;;;28.63;26.27;;;4.70;99.90;;;;;;4974858;28;20125;-76
2022/11/28 01:13:42;;;;;;;24.25;22.35;;;4.70;99.90;;;;;;4990737;28;20053;-75
2022/11/28 01:16:09;;;;;;;28.95;26.20;;;4.70;99.90;;;;;;4986798;28;20038;-76
2022/11/28 01:18:37;;;;;;;24.70;22.98;;;4.60;99.90;;;;;;4968589;28;20050;-72
2022/11/28 01:21:05;;;;;;;28.10;25.77;;;4.60;99.90;;;;;;4994297;28;20766;-74
2022/11/28 01:23:33;;;;;;;29.73;27.17;;;4.60;99.90;;;;;;4978229;28;20470;-76
2022/11/28 01:26:01;;;;;;;26.60;24.17;;;4.60;99.90;;;;;;5002485;28;20069;-73
2022/11/28 01:28:28;;;;;;;27.30;25.02;;;4.70;99.90;;;;;;4963255;28;20052;-73
2022/11/28 01:30:55;;;;;;;27.90;25.65;;;4.60;99.90;;;;;;4967050;28;20072;-76
2022/11/28 01:33:22;;;;;;;26.20;24.13;;;4.60;99.90;;;;;;4986088;28;20133;-74
2022/11/28 01:35:56;;;;;;;28.80;26.20;;;4.60;99.90;;;;;;4966420;28;20599;-76
2022/11/28 01:38:24;;;;;;;27.50;24.98;;;4.60;99.90;;;;;;4979302;28;20375;-75
2022/11/28 01:40:51;;;;;;;27.63;25.40;;;4.60;99.90;;;;;;4977436;28;20285;-76
2022/11/28 01:43:18;;;;;;;28.00;25.75;;;4.60;99.90;;;;;;4985730;28;20275;-75
2022/11/28 01:45:45;;;;;;;29.80;27.30;;;4.60;99.90;;;;;;4960356;28;20046;-76
2022/11/28 01:48:17;;;;;;;28.98;26.42;;;4.60;99.90;;;;;;4984682;28;20057;-73
2022/11/28 01:50:45;;;;;;;29.08;26.73;;;4.70;99.90;;;;;;4990100;28;20557;-73
2022/11/28 01:53:12;;;;;;;29.10;26.33;;;4.60;99.90;;;;;;4976551;28;20463;-75
2022/11/28 01:55:49;;;;;;;28.25;25.98;;;4.60;99.90;;;;;;4981084;28;20072;-76
2022/11/28 01:58:16;;;;;;;28.02;25.40;;;4.60;99.90;;;;;;4984091;28;20064;-74
2022/11/28 02:00:44;;;;;;;28.17;26.02;;;4.60;99.90;;;;;;4960866;28;20058;-75
2022/11/28 02:03:18;;;;;;;29.55;26.98;;;4.60;99.90;;;;;;4948487;28;20231;-73
2022/11/28 02:05:47;;;;;;;26.80;24.57;;;4.50;99.90;;;;;;4977976;28;20065;-75
2022/11/28 02:08:14;;;;;;;27.23;25.02;;;4.60;99.90;;;;;;4988787;28;20507;-74
2022/11/28 02:11:05;;;;;;;27.73;25.45;;;4.50;99.90;;;;;;4978845;28;20038;-74
2022/11/28 02:13:47;;;;;;;29.02;26.42;;;4.50;99.90;;;;;;4974461;28;20206;-75
2022/11/28 02:16:36;;;;;;;28.48;26.08;;;4.50;99.90;;;;;;4983781;28;20140;-74
2022/11/28 02:19:38;;;;;;;29.67;26.95;;;4.50;99.90;;;;;;4986616;28;20431;-75
2022/11/28 02:22:16;;;;;;;28.13;25.80;;;4.50;99.90;;;;;;4950596;28;21106;-75
2022/11/28 02:25:02;;;;;;;27.17;25.05;;;4.40;99.90;;;;;;4978168;28;20061;-75
2022/11/28 02:27:28;;;;;;;28.33;25.67;;;4.40;99.90;;;;;;4959267;28;20054;-73
2022/11/28 02:30:07;;;;;;;28.95;26.58;;;4.40;99.90;;;;;;4984415;28;20054;-73
2022/11/28 02:32:52;;;;;;;28.80;26.55;;;4.40;99.90;;;;;;4963081;28;20049;-75
2022/11/28 02:35:33;;;;;;;27.13;24.92;;;4.40;99.90;;;;;;4974530;28;20042;-76
2022/11/28 02:38:07;;;;;;;29.08;26.67;;;4.30;99.90;;;;;;4998361;28;20045;-75
2022/11/28 02:41:00;;;;;;;29.50;26.88;;;4.30;99.90;;;;;;4975460;28;20221;-75
2022/11/28 02:43:41;;;;;;;27.05;24.67;;;4.30;99.90;;;;;;4992321;28;20068;-73
2022/11/28 02:46:46;;;;;;;27.70;25.30;;;4.40;99.90;;;;;;4964873;28;20050;-73
2022/11/28 02:49:34;;;;;;;30.87;28.30;;;4.40;99.90;;;;;;4941835;28;20052;-74
2022/11/28 02:52:11;;;;;;;28.42;25.98;;;4.40;99.90;;;;;;4984655;28;20281;-76
2022/11/28 02:54:40;;;;;;;29.13;26.83;;;4.40;99.90;;;;;;4976931;28;20518;-74
2022/11/28 02:57:07;;;;;;;30.55;27.85;;;4.40;99.90;;;;;;4968581;28;20061;-73
2022/11/28 02:59:37;;;;;;;28.27;25.80;;;4.40;99.90;;;;;;4983495;28;20277;-74
2022/11/28 03:02:18;;;;;;;30.63;28.02;;;4.40;99.90;;;;;;4967610;28;20369;-75
2022/11/28 03:04:57;;;;;;;29.33;26.63;;;4.40;99.90;;;;;;4973765;28;20277;-76
2022/11/28 03:07:36;;;;;;;32.30;29.25;;;4.40;99.90;;;;;;4962349;28;20073;-73
2022/11/28 03:10:14;;;;;;;30.98;28.27;;;4.40;99.90;;;;;;4987292;28;20077;-74
2022/11/28 03:12:57;;;;;;;29.70;27.08;;;4.40;99.90;;;;;;4985053;28;20456;-75
2022/11/28 03:15:36;;;;;;;28.90;26.50;;;4.40;99.90;;;;;;4966065;28;20054;-76
2022/11/28 03:18:12;;;;;;;28.70;26.50;;;4.40;99.90;;;;;;5000086;28;20046;-75
2022/11/28 03:21:04;;;;;;;31.05;28.13;;;4.40;99.90;;;;;;4962012;28;20054;-76
2022/11/28 03:23:47;;;;;;;31.05;28.50;;;4.40;99.90;;;;;;4958825;28;20048;-77
2022/11/28 03:26:35;;;;;;;30.40;27.70;;;4.40;99.90;;;;;;4984327;28;20259;-76
2022/11/28 03:29:14;;;;;;;30.85;28.00;;;4.40;99.90;;;;;;4981704;28;20494;-78
2022/11/28 03:31:50;;;;;;;28.73;26.23;;;4.40;99.90;;;;;;4985174;28;20033;-74
2022/11/28 03:34:21;;;;;;;28.38;25.88;;;4.40;99.90;;;;;;4988565;28;20054;-73
2022/11/28 03:36:57;;;;;;;29.67;27.13;;;4.40;99.90;;;;;;4982966;28;20510;-74
2022/11/28 03:39:30;;;;;;;31.13;28.13;;;4.40;99.90;;;;;;4969085;28;20514;-75
2022/11/28 03:42:20;;;;;;;29.42;26.83;;;4.30;99.90;;;;;;4966402;28;20125;-74
2022/11/28 03:44:54;;;;;;;29.77;27.15;;;4.40;99.90;;;;;;4984079;28;20220;-74
2022/11/28 03:47:27;;;;;;;28.70;26.20;;;4.40;99.90;;;;;;4981883;28;20204;-74
2022/11/28 03:49:59;;;;;;;31.63;28.90;;;4.30;99.90;;;;;;4981527;28;20132;-73
2022/11/28 03:52:34;;;;;;;30.52;27.85;;;4.30;99.90;;;;;;4986794;28;20140;-75
2022/11/28 03:55:04;;;;;;;;;;;4.30;99.90;;;;;;4981123;28;20295;-73
2022/11/28 03:57:58;;;;;;;31.30;28.10;;;4.30;99.90;;;;;;4968127;28;19921;-74
2022/11/28 04:00:26;;;;;;;30.05;27.50;;;4.30;99.90;;;;;;4964919;28;20138;-74
2022/11/28 04:03:10;;;;;;;30.58;27.88;;;4.30;99.90;;;;;;4982945;28;20077;-73
2022/11/28 04:05:48;;;;;;;31.52;28.75;;;4.40;99.90;;;;;;4962138;28;20443;-73
2022/11/28 04:08:23;;;;;;;30.33;27.58;;;4.40;99.90;;;;;;4969520;28;20577;-78
2022/11/28 04:10:54;;;;;;;;;;;4.40;99.90;;;;;;4964261;28;20317;-73
2022/11/28 04:13:26;;;;;;;30.52;27.83;;;4.40;99.90;;;;;;4980538;28;20148;-74
2022/11/28 04:16:18;;;;;;;30.33;27.73;;;4.40;99.90;;;;;;4983551;28;20050;-74
2022/11/28 04:18:51;;;;;;;30.85;28.05;;;4.40;99.90;;;;;;4969158;28;20050;-75
2022/11/28 04:21:53;;;;;;;30.17;27.58;;;4.40;99.90;;;;;;4974788;28;20064;-76
2022/11/28 04:24:26;;;;;;;32.42;29.52;;;4.40;99.90;;;;;;4978140;28;20076;-73
2022/11/28 04:27:09;;;;;;;30.05;27.45;;;4.40;99.90;;;;;;4982566;28;20046;-73
2022/11/28 04:29:41;;;;;;;30.67;28.00;;;4.40;99.90;;;;;;4968419;28;20058;-76
2022/11/28 04:32:11;;;;;;;31.35;28.40;;;4.50;99.90;;;;;;4983386;28;20255;-75
2022/11/28 04:34:41;;;;;;;31.77;28.80;;;4.40;99.90;;;;;;4963887;28;21170;-74
2022/11/28 04:37:13;;;;;;;30.42;27.80;;;4.50;99.90;;;;;;4965356;28;20114;-76
2022/11/28 04:39:43;;;;;;;30.83;27.92;;;4.50;99.90;;;;;;4947877;28;20050;-75
2022/11/28 04:42:26;;;;;;;30.75;27.98;;;4.50;99.90;;;;;;4996981;28;20072;-76
2022/11/28 04:44:59;;;;;;;31.15;28.50;;;4.50;99.90;;;;;;4980811;28;20191;-76
2022/11/28 04:47:26;;;;;;;31.65;28.75;;;4.50;99.90;;;;;;4983523;28;20116;-76
2022/11/28 04:49:53;;;;;;;31.90;28.70;;;4.60;99.90;;;;;;4951120;28;20274;-75
2022/11/28 04:52:24;;;;;;;30.73;27.92;;;4.50;99.90;;;;;;4982804;28;20128;-76
2022/11/28 04:55:06;;;;;;;33.03;29.90;;;4.50;99.90;;;;;;4971134;28;20419;-75
2022/11/28 04:57:38;;;;;;;31.10;28.40;;;4.50;99.90;;;;;;4994547;28;20145;-76
2022/11/28 05:00:08;;;;;;;30.95;28.35;;;4.50;99.90;;;;;;4966507;28;20049;-76
2022/11/28 05:02:36;;;;;;;33.42;30.33;;;4.60;99.90;;;;;;4969103;28;20125;-75
2022/11/28 05:05:13;;;;;;;32.95;29.90;;;4.60;99.90;;;;;;4983556;28;20081;-75
2022/11/28 05:07:40;;;;;;;32.03;29.20;;;4.60;99.90;;;;;;4971357;28;20052;-75
2022/11/28 05:10:08;;;;;;;32.58;29.75;;;4.50;99.90;;;;;;4997261;28;20070;-76
2022/11/28 05:12:35;;;;;;;34.05;30.77;;;4.50;99.90;;;;;;4984013;28;20053;-74
2022/11/28 05:15:03;;;;;;;31.85;29.08;;;4.50;99.90;;;;;;4967080;28;20568;-76
2022/11/28 05:17:29;;;;;;;31.88;29.17;;;4.50;99.90;;;;;;4964058;28;20525;-75
2022/11/28 05:19:56;;;;;;;32.45;29.40;;;4.50;99.90;;;;;;4984158;28;20690;-75
2022/11/28 05:22:23;;;;;;;34.40;31.45;;;4.50;99.90;;;;;;4963643;28;20278;-75
2022/11/28 05:24:50;;;;;;;34.78;31.42;;;4.50;99.90;;;;;;4981128;28;20041;-74
2022/11/28 05:27:16;;;;;;;33.35;30.35;;;4.50;99.90;;;;;;4962951;28;20061;-75
2022/11/28 05:29:45;;;;;;;34.65;31.45;;;4.40;99.90;;;;;;4983278;28;20491;-75
2022/11/28 05:32:18;;;;;;;35.15;31.67;;;4.40;99.90;;;;;;4965537;28;20418;-74
2022/11/28 05:34:45;;;;;;;37.20;33.70;;;4.40;99.90;;;;;;4983802;28;20042;-75
2022/11/28 05:37:12;;;;;;;33.28;30.25;;;4.50;99.90;;;;;;5005623;28;20510;-74
2022/11/28 05:39:38;;;;;;;34.00;30.90;;;4.50;99.90;;;;;;4979937;28;20738;-76
2022/11/28 05:42:05;;;;;;;34.15;31.15;;;4.50;99.90;;;;;;4981210;28;20693;-76
2022/11/28 05:44:32;;;;;;;34.00;30.55;;;4.50;99.90;;;;;;4983580;28;20605;-74
2022/11/28 05:46:59;;;;;;;36.58;32.97;;;4.50;99.90;;;;;;4964798;28;20545;-76
2022/11/28 05:49:27;;;;;;;35.20;32.08;;;4.60;99.90;;;;;;4967424;28;20052;-74
2022/11/28 05:51:54;;;;;;;36.53;32.90;;;4.60;99.90;;;;;;4964920;28;20048;-74
2022/11/28 05:54:21;;;;;;;33.92;30.95;;;4.60;99.90;;;;;;4983262;28;20133;-74
2022/11/28 05:56:47;;;;;;;34.47;31.25;;;4.60;99.90;;;;;;4962389;28;20534;-75
2022/11/28 05:59:14;;;;;;;34.40;31.17;;;4.60;99.90;;;;;;4965384;28;20034;-74
2022/11/28 06:01:41;;;;;;;34.75;31.58;;;4.50;99.90;;;;;;4960786;28;20042;-75
2022/11/28 06:04:07;;;;;;;34.45;31.35;;;4.50;99.90;;;;;;4980878;28;20530;-74
2022/11/28 06:06:35;;;;;;;35.05;31.80;;;4.50;99.90;;;;;;4986843;28;20239;-73
2022/11/28 06:09:03;;;;;;;34.75;31.42;;;4.60;99.90;;;;;;4983476;28;20152;-73
2022/11/28 06:11:31;;;;;;;40.47;31.60;;;4.60;99.90;;;;;;4979628;28;20193;-75
2022/11/28 06:13:58;;;;;;;35.47;31.98;;;4.60;99.90;;;;;;4967615;28;20509;-76
2022/11/28 06:16:27;;;;;;;34.85;31.40;;;4.70;99.90;;;;;;4968394;28;20099;-75
2022/11/28 06:18:57;;;;;;;33.25;29.90;;;4.60;99.90;;;;;;4952422;28;20475;-75
2022/11/28 06:21:24;;;;;;;35.67;32.47;;;4.60;99.90;;;;;;4976941;28;20238;-73
2022/11/28 06:23:52;;;;;;;35.38;32.08;;;4.60;99.90;;;;;;4979359;28;20038;-74
2022/11/28 06:26:20;;;;;;;35.53;32.28;;;4.60;99.90;;;;;;4961107;28;20112;-76
2022/11/28 06:28:48;;;;;;;35.65;32.38;;;4.70;99.90;;;;;;4978709;28;20126;-75
2022/11/28 06:31:20;;;;;;;36.47;33.10;;;4.70;99.90;;;;;;4979187;28;20421;-75
2022/11/28 06:33:48;;;;;;;35.03;31.73;;;4.80;99.90;;;;;;4998154;28;20494;-75
2022/11/28 06:36:17;;;;;;;35.63;32.20;;;4.80;99.90;;;;;;4979184;28;20052;-74
2022/11/28 06:38:44;;;;;;;32.17;29.45;;;4.80;99.90;;;;;;4966584;28;20434;-75
2022/11/28 06:41:15;;;;;;;35.30;32.00;;;4.80;99.90;;;;;;4948403;28;20038;-75
2022/11/28 06:43:42;;;;;;;33.78;30.77;;;4.80;99.90;;;;;;4978698;28;20073;-76
2022/11/28 06:46:15;;;;;;;31.73;29.17;;;4.80;99.90;;;;;;4977940;28;20072;-75
2022/11/28 06:48:43;;;;;;;34.25;31.17;;;4.80;99.90;;;;;;4978239;28;20058;-75
2022/11/28 06:51:11;;;;;;;34.70;31.45;;;4.80;99.90;;;;;;4980110;28;21124;-75
2022/11/28 06:53:38;;;;;;;33.50;30.50;;;4.80;99.90;;;;;;4977853;28;20294;-75
2022/11/28 06:56:08;;;;;;;33.90;30.75;;;4.90;99.90;;;;;;4983087;28;20260;-75
2022/11/28 06:58:35;;;;;;;34.75;31.40;;;4.90;99.90;;;;;;4966574;28;20046;-75
2022/11/28 07:01:14;;;;;;;35.30;32.20;;;4.90;99.90;;;;;;4961919;28;20042;-75
2022/11/28 07:03:42;;;;;;;33.90;30.80;;;4.90;99.90;;;;;;4975320;28;20073;-75
2022/11/28 07:06:10;;;;;;;32.50;29.83;;;4.90;99.90;;;;;;4982227;28;20406;-75
2022/11/28 07:08:38;;;;;;;35.20;31.98;;;4.90;99.90;;;;;;4966558;28;20050;-75
2022/11/28 07:11:22;;;;;;;32.58;29.67;;;5.00;99.90;;;;;;4991150;28;20097;-74
2022/11/28 07:13:50;;;;;;;35.97;32.65;;;5.00;99.90;;;;;;4963680;28;20058;-75
2022/11/28 07:16:26;;;;;;;33.03;30.15;;;5.00;99.90;;;;;;4977703;28;20084;-72
2022/11/28 07:18:56;;;;;;;36.97;33.45;;;4.90;99.90;;;;;;4956774;28;20049;-73
2022/11/28 07:21:23;;;;;;;39.25;35.45;;;4.90;99.90;;;;;;4961153;28;20042;-74
2022/11/28 07:23:50;;;;;;;37.40;34.05;;;4.80;99.90;;;;;;4964023;28;20261;-74
2022/11/28 07:26:20;;;;;;;39.08;35.22;;;4.80;99.90;;;;;;4981724;28;20120;-74
2022/11/28 07:28:47;;;;;;;38.92;34.80;;;4.80;99.90;;;;;;4981318;28;20684;-76
2022/11/28 07:31:16;;;;;;;36.83;33.22;;;4.70;99.90;;;;;;4978976;28;20131;-75
2022/11/28 07:33:45;;;;;;;35.75;32.15;;;4.70;99.90;;;;;;4953840;28;20228;-74
2022/11/28 07:36:14;;;;;;;35.75;32.35;;;4.70;99.90;;;;;;4988701;28;21510;-74
2022/11/28 07:38:41;;;;;;;34.17;30.67;;;4.70;99.90;;;;;;4967715;28;20034;-74
2022/11/28 07:41:11;;;;;;;36.78;33.15;;;4.60;99.90;;;;;;4987186;28;20763;-74
2022/11/28 07:43:39;;;;;;;37.35;33.40;;;4.60;99.90;;;;;;4967546;28;21026;-73
2022/11/28 07:46:09;;;;;;;34.28;30.95;;;4.60;99.90;;;;;;4966323;28;20038;-74
2022/11/28 07:48:36;;;;;;;36.60;32.95;;;4.60;99.90;;;;;;4982747;28;20068;-74
2022/11/28 07:51:17;;;;;;;33.97;30.67;;;4.60;99.90;;;;;;4983802;28;20433;-74
2022/11/28 07:53:45;;;;;;;33.90;30.80;;;4.60;99.90;;;;;;4982007;28;20050;-73
2022/11/28 07:56:14;;;;;;;36.15;32.83;;;4.70;99.90;;;;;;4969503;28;20050;-74
2022/11/28 07:58:43;;;;;;;38.20;34.47;;;4.70;99.90;;;;;;4984949;28;20030;-73
2022/11/28 08:01:16;;;;;;;36.72;33.00;;;4.70;99.90;;;;;;4968647;28;20420;-74
2022/11/28 08:03:44;;;;;;;41.35;37.50;;;4.70;99.90;;;;;;4992584;28;20128;-74
2022/11/28 08:06:11;;;;;;;39.67;35.85;;;4.70;99.90;;;;;;4988370;28;20034;-75
2022/11/28 08:08:38;;;;;;;46.67;42.22;;;4.60;99.90;;;;;;4968123;28;20052;-74
2022/11/28 08:11:07;;;;;;;45.85;41.70;;;4.60;99.90;;;;;;4953190;28;20045;-74
2022/11/28 08:13:35;;;;;;;45.72;41.90;;;4.60;99.90;;;;;;4952354;28;20116;-75
2022/11/28 08:16:07;;;;;;;45.17;41.25;;;4.60;99.90;;;;;;4970044;28;20168;-75
2022/11/28 08:18:34;;;;;;;46.10;41.65;;;4.70;99.90;;;;;;4968484;28;20053;-75
2022/11/28 08:21:10;;;;;;;44.25;40.75;;;4.70;99.90;;;;;;4986004;28;20045;-74
2022/11/28 08:23:38;;;;;;;43.70;40.13;;;4.60;99.90;;;;;;4967477;28;20827;-74
2022/11/28 08:26:07;;;;;;;46.80;42.67;;;4.70;99.90;;;;;;4966944;28;20448;-75
2022/11/28 08:28:35;;;;;;;44.25;40.40;;;4.70;99.90;;;;;;4983721;28;20135;-75
2022/11/28 08:31:12;;;;;;;45.65;41.13;;;4.70;99.90;;;;;;4985329;28;20562;-74
2022/11/28 08:33:39;;;;;;;45.28;41.22;;;4.70;99.90;;;;;;4967659;28;20058;-75
2022/11/28 08:36:08;;;;;;;45.30;41.15;;;4.70;99.90;;;;;;4967616;28;20443;-75
2022/11/28 08:38:35;;;;;;;42.20;38.33;;;4.70;99.90;;;;;;4984242;28;20545;-75
2022/11/28 08:41:08;;;;;;;45.63;41.63;;;4.70;99.90;;;;;;4965659;28;20115;-76
2022/11/28 08:43:36;;;;;;;45.38;41.50;;;4.70;99.90;;;;;;4969193;28;20104;-75
2022/11/28 08:46:04;;;;;;;43.38;39.35;;;4.70;99.90;;;;;;4983647;28;20514;-74
2022/11/28 08:48:33;;;;;;;45.60;41.38;;;4.70;99.90;;;;;;4983571;28;20135;-75
2022/11/28 08:51:00;;;;;;;43.38;39.83;;;4.80;99.90;;;;;;4984911;28;20053;-75
2022/11/28 08:56:05;;;;;;;43.25;39.30;;;4.80;99.90;;;;;;4902184;29;20126;-75
2022/11/28 08:58:32;;;;;;;41.58;38.13;;;4.80;99.90;;;;;;4901771;29;20040;-75
2022/11/28 09:00:59;;;;;;;41.78;38.08;;;4.80;99.90;;;;;;4903643;29;20046;-76
2022/11/28 09:03:25;;;;;;;44.75;40.65;;;4.80;99.90;;;;;;4902564;29;20052;-75
2022/11/28 09:05:52;;;;;;;47.00;42.22;;;4.80;99.90;;;;;;4907638;29;20051;-78
2022/11/28 09:08:21;;;;;;;43.22;39.30;;;4.90;99.90;;;;;;4909330;29;20047;-76
2022/11/28 09:10:47;;;;;;;49.22;44.17;;;4.90;99.90;;;;;;4909640;29;20416;-77
2022/11/28 09:13:14;;;;;;;45.20;40.80;;;4.90;99.90;;;;;;4889653;29;20040;-76
2022/11/28 09:15:43;;;;;;;46.22;41.45;;;4.90;99.90;;;;;;4906991;29;20453;-77
2022/11/28 09:18:14;;;;;;;47.60;42.90;;;5.00;99.90;;;;;;4904674;29;20044;-77
2022/11/28 09:20:41;;;;;;;45.80;41.38;;;5.10;99.90;;;;;;4902837;29;20052;-77
2022/11/28 09:23:09;;;;;;;44.58;40.25;;;5.10;99.90;;;;;;4902211;29;20563;-75
2022/11/28 09:25:36;;;;;;;43.05;38.92;;;5.00;99.90;;;;;;4906309;29;20044;-75
2022/11/28 09:28:04;;;;;;;43.00;39.17;;;5.00;99.90;;;;;;4906354;29;20052;-74
2022/11/28 09:30:31;;;;;;;46.38;42.13;;;5.00;99.90;;;;;;4899162;29;20047;-77
2022/11/28 09:32:59;;;;;;;43.60;39.38;;;5.00;99.90;;;;;;4905169;29;20417;-77
2022/11/28 09:35:25;;;;;;;41.70;37.90;;;5.00;99.90;;;;;;4885653;29;20118;-76
2022/11/28 09:37:52;;;;;;;49.50;44.83;;;5.00;99.90;;;;;;4888600;29;20150;-75
2022/11/28 09:40:42;;;;;;;44.30;40.10;;;5.10;99.90;;;;;;4885252;29;20308;-73
2022/11/28 09:43:27;;;;;;;41.38;37.72;;;5.10;99.90;;;;;;4902406;29;20059;-75
2022/11/28 09:45:56;;;;;;;46.22;41.88;;;5.10;99.90;;;;;;4902994;29;20381;-76
2022/11/28 09:48:53;;;;;;;43.90;39.50;;;5.20;99.90;;;;;;4884304;29;20366;-76
2022/11/28 09:51:33;;;;;;;46.88;42.45;;;5.20;99.90;;;;;;4900137;29;21630;-75
2022/11/28 09:54:16;;;;;;;44.58;40.42;;;5.20;99.90;;;;;;4898616;29;20044;-72
2022/11/28 09:56:46;;;;;;;44.65;40.42;;;5.20;99.90;;;;;;4902181;29;20050;-76
2022/11/28 09:59:26;;;;;;;45.53;41.20;;;5.20;99.90;;;;;;4901213;29;20131;-74
2022/11/28 10:02:06;;;;;;;43.05;39.33;;;5.20;99.90;;;;;;4900646;29;20040;-76
2022/11/28 10:05:00;;;;;;;45.70;41.35;;;5.20;99.90;;;;;;4889415;29;20054;-74
2022/11/28 10:07:46;;;;;;;43.95;39.75;;;5.20;99.90;;;;;;4897736;29;20215;-74
2022/11/28 10:10:32;;;;;;;46.03;41.63;;;5.20;99.90;;;;;;4906063;29;20779;-75
2022/11/28 10:13:10;;;;;;;45.60;41.28;;;5.20;99.90;;;;;;4902529;29;20064;-76
2022/11/28 10:16:05;;;;;;;47.80;43.60;;;5.30;99.90;;;;;;4899620;29;20473;-76
2022/11/28 10:18:49;;;;;;;46.53;42.22;;;5.30;99.90;;;;;;4904163;29;20150;-76
2022/11/28 10:21:36;;;;;;;47.72;43.72;;;5.30;99.90;;;;;;4898576;29;20118;-75
2022/11/28 10:24:13;;;;;;;47.15;42.95;;;5.30;99.90;;;;;;4899765;29;20039;-75
2022/11/28 10:26:49;;;;;;;48.40;43.75;;;5.30;99.90;;;;;;4899614;29;20048;-75
2022/11/28 10:29:21;;;;;;;48.10;43.55;;;5.30;99.90;;;;;;4906901;29;20087;-75
2022/11/28 10:31:51;;;;;;;49.47;44.40;;;5.40;99.90;;;;;;4908247;29;20122;-75
2022/11/28 10:34:40;;;;;;;47.58;43.10;;;5.30;99.90;;;;;;4909487;29;20107;-75
2022/11/28 10:37:12;;;;;;;48.08;43.35;;;5.30;99.90;;;;;;4902281;29;20106;-73
2022/11/28 10:39:42;;;;;;;50.03;45.25;;;5.30;99.90;;;;;;4902238;29;20048;-74
2022/11/28 10:42:41;;;;;;;47.15;42.38;;;5.30;99.90;;;;;;4900720;29;20047;-76
2022/11/28 10:45:51;;;;;;;48.38;43.85;;;5.40;99.90;;;;;;4885431;29;20079;-74
2022/11/28 10:48:32;;;;;;;49.85;44.65;;;5.40;99.90;;;;;;4854304;29;20080;-76
2022/11/28 10:51:34;;;;;;;47.70;43.15;;;5.30;99.90;;;;;;4883973;29;20064;-76
2022/11/28 10:54:05;;;;;;;49.75;44.92;;;5.40;99.90;;;;;;4897212;29;20375;-74
2022/11/28 10:56:41;;;;;;;47.50;43.10;;;5.50;99.90;;;;;;4896534;29;20099;-74
2022/11/28 10:59:47;;;;;;;46.78;42.35;;;5.50;99.90;;;;;;4900523;29;20555;-75
2022/11/28 11:02:47;;;;;;;49.67;45.40;;;5.60;99.90;;;;;;4895560;29;20061;-76
2022/11/28 11:05:20;;;;;;;46.15;41.83;;;5.50;99.90;;;;;;4861470;29;20044;-77
2022/11/28 11:07:53;;;;;;;46.55;42.03;;;5.50;99.90;;;;;;4898927;29;20082;-74
2022/11/28 11:10:35;;;;;;;46.95;42.65;;;5.40;99.90;;;;;;4898472;29;20515;-77
2022/11/28 11:13:22;;;;;;;47.15;42.88;;;5.40;99.90;;;;;;4907215;29;20094;-76
2022/11/28 11:15:59;;;;;;;54.00;48.25;;;5.40;99.90;;;;;;4901388;29;20559;-75
2022/11/28 11:18:29;;;;;;;54.70;48.47;;;5.50;99.90;;;;;;4901954;29;20054;-77
2022/11/28 11:21:15;;;;;;;51.95;46.75;;;5.50;99.90;;;;;;4888881;29;20032;-76
2022/11/28 11:23:43;;;;;;;47.40;42.67;;;5.50;99.90;;;;;;4903530;29;20393;-74
2022/11/28 11:26:44;;;;;;;46.33;42.10;;;5.50;99.90;;;;;;4885039;29;20134;-77
2022/11/28 11:29:36;;;;;;;44.38;40.38;;;5.50;99.90;;;;;;4873073;29;20067;-76
2022/11/28 11:32:05;;;;;;;45.90;41.72;;;5.50;99.90;;;;;;4886921;29;20086;-73
2022/11/28 11:34:41;;;;;;;50.15;45.08;;;5.50;99.90;;;;;;4907212;29;20048;-76
2022/11/28 11:37:20;;;;;;;47.95;43.05;;;5.50;99.90;;;;;;4899113;29;20120;-75
2022/11/28 11:39:52;;;;;;;57.65;50.85;;;5.60;99.90;;;;;;4905698;29;20238;-76
2022/11/28 11:42:31;;;;;;;82.43;70.70;;;5.60;99.90;;;;;;4888057;29;20164;-73
2022/11/28 11:45:26;;;;;;;72.10;64.18;;;5.60;99.90;;;;;;4903499;29;20391;-74
2022/11/28 11:47:54;;;;;;;57.88;50.83;;;5.60;99.90;;;;;;4889197;29;20352;-75
2022/11/28 11:50:23;;;;;;;62.22;55.80;;;5.60;99.90;;;;;;4902419;29;20623;-76
2022/11/28 11:53:03;;;;;;;60.97;54.65;;;5.60;99.90;;;;;;4903757;29;20147;-74
2022/11/28 11:55:33;;;;;;;49.15;44.38;;;5.70;99.90;;;;;;4885904;29;20062;-74
2022/11/28 11:58:02;;;;;;;46.83;42.25;;;5.70;99.90;;;;;;4901965;29;20536;-75
2022/11/28 12:00:42;;;;;;;48.80;44.20;;;5.70;99.90;;;;;;4904245;29;20047;-77
2022/11/28 12:03:24;;;;;;;56.90;51.22;;;5.70;99.90;;;;;;4902137;29;20048;-75
2022/11/28 12:05:57;;;;;;;54.03;48.63;;;5.90;99.90;;;;;;4904002;29;20134;-75
2022/11/28 12:08:50;;;;;;;44.00;40.25;;;5.90;99.90;;;;;;4887738;29;20520;-76
2022/11/28 12:11:28;;;;;;;62.08;55.17;;;5.80;99.90;;;;;;4885380;29;20119;-77
2022/11/28 12:13:58;;;;;;;56.13;50.42;;;5.90;99.90;;;;;;4889699;29;20274;-76
2022/11/28 12:16:43;;;;;;;54.60;49.28;;;5.90;99.90;;;;;;4901108;29;20051;-77
2022/11/28 12:19:30;;;;;;;49.35;44.25;;;5.80;99.90;;;;;;4889830;29;20103;-78
2022/11/28 12:22:04;;;;;;;44.63;40.53;;;5.80;99.90;;;;;;4910450;29;20343;-77
2022/11/28 12:24:55;;;;;;;47.25;42.97;;;5.90;99.90;;;;;;4911133;28;20127;-74
2022/11/28 12:27:32;;;;;;;46.55;42.05;;;5.90;99.90;;;;;;4899376;29;20318;-74
2022/11/28 12:30:25;;;;;;;49.22;44.40;;;5.80;99.90;;;;;;4894351;29;20611;-74
2022/11/28 12:33:03;;;;;;;46.00;41.60;;;5.80;99.90;;;;;;4905728;29;20447;-75
2022/11/28 12:35:48;;;;;;;45.70;41.22;;;5.80;99.90;;;;;;4903571;29;20060;-74
2022/11/28 12:38:24;;;;;;;47.22;42.65;;;5.90;99.90;;;;;;4884362;29;20588;-76
2022/11/28 12:41:18;;;;;;;52.53;46.97;;;5.90;99.90;;;;;;4888814;29;20036;-76
2022/11/28 12:44:22;;;;;;;43.95;39.63;;;5.90;99.90;;;;;;4896839;29;20118;-74
2022/11/28 12:47:09;;;;;;;44.67;40.38;;;5.90;99.90;;;;;;4900276;29;20048;-76
2022/11/28 12:49:59;;;;;;;46.42;42.03;;;5.90;99.90;;;;;;4905742;29;20048;-76
2022/11/28 12:52:40;;;;;;;51.30;46.00;;;5.90;99.90;;;;;;4873192;29;20059;-74
2022/11/28 12:55:22;;;;;;;52.22;47.00;;;5.90;99.90;;;;;;4902618;29;20062;-75
2022/11/28 12:58:11;;;;;;;47.08;42.65;;;5.80;99.90;;;;;;4886152;29;20051;-76
2022/11/28 13:01:02;;;;;;;43.42;39.45;;;5.90;99.90;;;;;;4901655;29;21219;-74
2022/11/28 13:04:00;;;;;;;45.70;41.63;;;5.90;99.90;;;;;;4884489;29;20055;-77
2022/11/28 13:06:44;;;;;;;44.25;40.30;;;5.90;99.90;;;;;;4899095;29;20098;-77
2022/11/28 13:09:49;;;;;;;46.65;42.40;;;6.00;99.90;;;;;;4904252;29;20051;-77
2022/11/28 13:12:25;;;;;;;44.65;40.40;;;6.00;99.90;;;;;;4862917;29;20062;-74
2022/11/28 13:14:57;;;;;;;43.97;39.97;;;6.00;99.90;;;;;;4889851;29;20542;-77
2022/11/28 13:17:24;;;;;;;46.17;41.70;;;6.10;99.90;;;;;;4899153;29;20043;-76